Time;durP1;ratioP1;P1;durP2;ratioP2;P2;SDS_P1;SDS_P2;PMS_P1;PMS_P2;Temp;Humidity;BMP_temperature;BMP_pressure;BME280_temperature;BME280_humidity;BME280_pressure;Samples;Min_cycle;Max_cycle;Signal;HPM_P1;HPM_P2
2023/10/11 00:02:59;;;;;;;10.20;4.90;;;19.20;99.90;;;;;;4971912;28;20463;-79
2023/10/11 00:05:25;;;;;;;10.50;4.67;;;19.10;99.90;;;;;;4972073;28;20451;-80
2023/10/11 00:07:57;;;;;;;21.63;6.13;;;19.10;1.00;;;;;;4971586;28;20490;-79
2023/10/11 00:10:23;;;;;;;13.57;5.67;;;19.10;1.00;;;;;;4970143;28;20499;-80
2023/10/11 00:12:52;;;;;;;9.00;5.17;;;19.10;1.00;;;;;;4971518;28;20476;-80
2023/10/11 00:15:18;;;;;;;9.47;5.10;;;19.00;1.00;;;;;;4969675;28;20185;-79
2023/10/11 00:17:46;;;;;;;7.47;4.70;;;19.00;1.00;;;;;;4972070;28;20893;-80
2023/10/11 00:20:28;;;;;;;10.90;4.93;;;19.00;1.00;;;;;;4972123;28;20189;-79
2023/10/11 00:22:54;;;;;;;10.37;4.80;;;18.90;1.00;;;;;;4969748;28;20510;-79
2023/10/11 00:25:23;;;;;;;12.17;5.83;;;18.90;1.00;;;;;;4969898;28;20440;-80
2023/10/11 00:27:51;;;;;;;12.40;5.50;;;18.80;1.00;;;;;;4970911;28;20446;-79
2023/10/11 00:30:17;;;;;;;12.27;5.47;;;18.80;1.00;;;;;;4971166;28;20902;-80
2023/10/11 00:32:45;;;;;;;11.63;5.30;;;18.80;1.00;;;;;;4972433;28;20448;-81
2023/10/11 00:35:18;;;;;;;15.13;6.20;;;18.70;1.00;;;;;;4969535;28;20456;-79
2023/10/11 00:37:49;;;;;;;11.27;5.73;;;18.70;1.00;;;;;;4972851;28;20834;-79
2023/10/11 00:40:25;;;;;;;7.93;4.90;;;18.60;1.00;;;;;;4972616;28;20977;-79
2023/10/11 00:42:57;;;;;;;10.37;5.53;;;18.60;1.00;;;;;;4969164;28;20467;-79
2023/10/11 00:45:25;;;;;;;11.77;5.60;;;18.50;1.00;;;;;;4972127;28;20459;-80
2023/10/11 00:47:55;;;;;;;10.93;6.37;;;18.50;1.00;;;;;;4972288;28;20580;-79
2023/10/11 00:50:22;;;;;;;15.93;5.60;;;18.50;1.00;;;;;;4972101;28;20444;-80
2023/10/11 00:52:48;;;;;;;18.90;6.40;;;18.50;1.00;;;;;;4970258;28;20505;-80
2023/10/11 00:55:19;;;;;;;15.30;6.60;;;18.50;1.00;;;;;;4968852;28;20507;-79
2023/10/11 00:57:47;;;;;;;10.30;6.33;;;18.50;1.00;;;;;;4966690;28;20204;-79
2023/10/11 01:00:16;;;;;;;15.57;5.83;;;18.50;1.00;;;;;;4971176;28;20447;-79
2023/10/11 01:02:44;;;;;;;11.13;5.90;;;18.50;1.00;;;;;;4969628;28;20937;-79
2023/10/11 01:05:10;;;;;;;13.80;5.00;;;18.50;1.00;;;;;;4972455;28;20602;-80
2023/10/11 01:07:37;;;;;;;14.03;5.50;;;18.50;1.00;;;;;;4975605;28;20506;-79
2023/10/11 01:10:05;;;;;;;8.50;5.30;;;18.50;1.00;;;;;;4975319;28;20506;-79
2023/10/11 01:12:30;;;;;;;8.87;5.33;;;18.50;1.00;;;;;;4974378;28;20454;-80
2023/10/11 01:14:59;;;;;;;9.93;4.77;;;18.50;1.00;;;;;;4973183;28;20820;-80
2023/10/11 01:17:26;;;;;;;8.93;4.80;;;18.50;1.00;;;;;;4976711;28;20299;-80
2023/10/11 01:19:52;;;;;;;12.97;5.53;;;18.50;1.00;;;;;;4976139;28;20523;-80
2023/10/11 01:22:20;;;;;;;14.10;5.70;;;18.50;1.00;;;;;;4975753;28;20475;-80
2023/10/11 01:24:47;;;;;;;12.20;5.73;;;18.60;1.00;;;;;;4977347;28;20306;-80
2023/10/11 01:27:14;;;;;;;10.70;5.37;;;18.60;1.00;;;;;;4977283;28;20953;-80
2023/10/11 01:29:41;;;;;;;13.63;5.40;;;18.60;1.00;;;;;;4975786;28;20539;-78
2023/10/11 01:32:06;;;;;;;13.90;5.93;;;18.60;1.00;;;;;;4972915;28;20551;-80
2023/10/11 01:34:32;;;;;;;15.30;5.50;;;18.60;1.00;;;;;;4975899;28;20486;-80
2023/10/11 01:36:58;;;;;;;18.73;5.73;;;18.50;1.00;;;;;;4976754;28;20474;-81
2023/10/11 01:39:24;;;;;;;17.17;7.03;;;18.50;1.00;;;;;;4976450;28;20272;-80
2023/10/11 01:41:54;;;;;;;8.10;5.77;;;18.50;1.00;;;;;;4976851;28;20475;-80
2023/10/11 01:44:22;;;;;;;11.47;5.00;;;18.50;1.00;;;;;;4976871;28;20470;-80
2023/10/11 01:46:48;;;;;;;9.83;5.50;;;18.50;1.00;;;;;;4977105;28;20871;-81
2023/10/11 01:49:14;;;;;;;26.83;5.90;;;18.40;1.00;;;;;;4973295;28;20458;-81
2023/10/11 01:51:46;;;;;;;14.07;5.50;;;18.50;1.00;;;;;;4974767;28;20197;-81
2023/10/11 01:54:12;;;;;;;13.20;5.83;;;18.40;1.00;;;;;;4974364;28;20464;-81
2023/10/11 01:56:38;;;;;;;17.80;5.33;;;18.40;1.00;;;;;;4971147;28;20532;-81
2023/10/11 01:59:04;;;;;;;12.83;5.60;;;18.40;1.00;;;;;;4976630;28;20532;-81
2023/10/11 02:01:38;;;;;;;14.43;5.53;;;18.40;1.00;;;;;;4975787;28;20893;-79
2023/10/11 02:04:10;;;;;;;11.63;5.50;;;18.40;1.00;;;;;;4974106;28;20459;-80
2023/10/11 02:06:38;;;;;;;13.87;6.10;;;18.40;1.00;;;;;;4971293;28;20456;-80
2023/10/11 02:09:04;;;;;;;12.87;5.60;;;18.40;1.00;;;;;;4974390;28;20441;-80
2023/10/11 02:11:29;;;;;;;11.83;5.00;;;18.40;1.00;;;;;;4973296;28;20436;-80
2023/10/11 02:13:59;;;;;;;10.50;5.77;;;18.40;1.00;;;;;;4974061;28;20471;-80
2023/10/11 02:16:25;;;;;;;13.17;5.90;;;18.40;1.00;;;;;;4975304;28;20188;-80
2023/10/11 02:18:58;;;;;;;17.97;6.33;;;18.40;1.00;;;;;;4974108;28;20591;-80
2023/10/11 02:21:24;;;;;;;15.53;6.60;;;18.40;1.00;;;;;;4973441;28;20890;-79
2023/10/11 02:23:50;;;;;;;12.90;6.00;;;18.40;1.00;;;;;;4973291;28;20491;-80
2023/10/11 02:26:27;;;;;;;14.60;6.40;;;18.30;1.00;;;;;;4972220;28;20513;-80
2023/10/11 02:28:53;;;;;;;10.23;4.80;;;18.30;1.00;;;;;;4975439;28;20177;-80
2023/10/11 02:31:24;;;;;;;10.67;5.10;;;18.30;1.00;;;;;;4975656;28;20889;-80
2023/10/11 02:33:56;;;;;;;14.87;5.20;;;18.30;1.00;;;;;;4971999;28;20276;-80
2023/10/11 02:36:22;;;;;;;11.27;5.30;;;18.20;1.00;;;;;;4975705;28;20475;-80
2023/10/11 02:38:50;;;;;;;12.83;6.40;;;18.20;1.00;;;;;;4971477;28;20499;-80
2023/10/11 02:41:20;;;;;;;18.07;6.10;;;18.20;1.00;;;;;;4977094;28;20195;-79
2023/10/11 02:43:49;;;;;;;12.77;5.60;;;18.20;1.00;;;;;;4974566;28;20448;-79
2023/10/11 02:46:22;;;;;;;10.53;5.57;;;18.20;1.00;;;;;;4973922;28;20435;-79
2023/10/11 02:49:04;;;;;;;16.83;5.87;;;18.10;1.00;;;;;;4972097;28;20443;-80
2023/10/11 02:51:32;;;;;;;12.53;5.03;;;18.10;1.00;;;;;;4973499;28;20494;-79
2023/10/11 02:53:58;;;;;;;9.63;5.40;;;18.10;1.00;;;;;;4972802;28;20466;-78
2023/10/11 02:56:24;;;;;;;13.20;5.00;;;18.10;1.00;;;;;;4970984;28;20511;-79
2023/10/11 02:58:50;;;;;;;11.53;5.00;;;18.10;1.00;;;;;;4973138;28;20988;-79
2023/10/11 03:01:20;;;;;;;18.50;6.23;;;18.10;1.00;;;;;;4972899;28;20180;-79
2023/10/11 03:03:47;;;;;;;8.80;5.57;;;18.00;1.00;;;;;;4971494;28;20632;-78
2023/10/11 03:06:13;;;;;;;15.83;5.27;;;18.00;1.00;;;;;;4968400;28;20815;-79
2023/10/11 03:08:40;;;;;;;13.50;4.60;;;18.00;1.00;;;;;;4970548;28;20482;-80
2023/10/11 03:11:08;;;;;;;15.07;4.80;;;18.00;1.00;;;;;;4972784;28;20585;-79
2023/10/11 03:13:41;;;;;;;9.70;5.07;;;18.00;1.00;;;;;;4970420;28;20466;-80
2023/10/11 03:16:13;;;;;;;12.70;5.93;;;17.90;1.00;;;;;;4973744;28;20797;-79
2023/10/11 03:18:40;;;;;;;11.80;5.00;;;17.90;1.00;;;;;;4973267;28;20470;-80
2023/10/11 03:21:17;;;;;;;10.47;5.57;;;17.80;1.00;;;;;;4972194;28;20881;-80
2023/10/11 03:23:54;;;;;;;11.37;5.67;;;17.80;1.00;;;;;;4972806;28;20868;-79
2023/10/11 03:26:31;;;;;;;10.50;4.90;;;17.80;1.00;;;;;;4971378;28;20440;-79
2023/10/11 03:28:58;;;;;;;12.00;5.07;;;17.80;1.00;;;;;;4964157;28;20440;-79
2023/10/11 03:31:28;;;;;;;9.23;4.90;;;17.80;1.00;;;;;;4973103;28;20506;-79
2023/10/11 03:33:57;;;;;;;9.00;5.27;;;17.70;1.00;;;;;;4971967;28;20456;-79
2023/10/11 03:36:35;;;;;;;12.17;5.40;;;17.70;1.00;;;;;;4972818;28;20446;-80
2023/10/11 03:39:09;;;;;;;30.33;6.73;;;17.70;1.00;;;;;;4973151;28;20435;-80
2023/10/11 03:41:36;;;;;;;7.80;4.83;;;17.70;1.00;;;;;;4973586;28;20937;-80
2023/10/11 03:44:09;;;;;;;9.77;4.70;;;17.70;1.00;;;;;;4970795;28;21068;-79
2023/10/11 03:46:36;;;;;;;11.63;5.23;;;17.70;1.00;;;;;;4970495;28;21381;-79
2023/10/11 03:49:13;;;;;;;13.33;4.63;;;17.60;1.00;;;;;;4971986;28;20972;-79
2023/10/11 03:51:42;;;;;;;11.53;5.40;;;17.60;1.00;;;;;;4973057;28;20435;-80
2023/10/11 03:54:08;;;;;;;10.53;4.83;;;17.60;1.00;;;;;;4971847;28;20507;-79
2023/10/11 03:56:35;;;;;;;11.07;4.57;;;17.60;1.00;;;;;;4972386;28;20896;-79
2023/10/11 03:59:00;;;;;;;8.97;4.57;;;17.60;1.00;;;;;;4972246;28;20248;-79
2023/10/11 04:01:28;;;;;;;10.53;5.20;;;17.60;1.00;;;;;;4970829;28;20539;-80
2023/10/11 04:03:53;;;;;;;15.20;5.00;;;17.60;1.00;;;;;;4969205;28;20201;-80
2023/10/11 04:06:22;;;;;;;16.13;5.20;;;17.60;1.00;;;;;;4971964;28;20828;-80
2023/10/11 04:09:00;;;;;;;15.60;6.40;;;17.60;1.00;;;;;;4973075;28;20215;-80
2023/10/11 04:11:37;;;;;;;10.33;4.60;;;17.60;1.00;;;;;;4969246;28;20803;-80
2023/10/11 04:14:12;;;;;;;9.07;5.03;;;17.60;1.00;;;;;;4971694;28;20459;-79
2023/10/11 04:16:38;;;;;;;9.37;4.77;;;17.60;1.00;;;;;;4973737;28;20455;-80
2023/10/11 04:19:04;;;;;;;7.70;4.20;;;17.60;1.00;;;;;;4969474;28;20491;-79
2023/10/11 04:21:52;;;;;;;10.37;5.27;;;17.60;1.00;;;;;;4973061;28;20761;-80
2023/10/11 04:24:21;;;;;;;11.50;5.03;;;17.60;1.00;;;;;;4972118;28;20220;-80
2023/10/11 04:27:45;;;;;;;9.90;5.30;;;17.60;1.00;;;;;;4972922;28;20561;-81
2023/10/11 04:29:44;;;;;;;9.33;4.93;;;17.60;1.00;;;;;;4969037;28;20498;-80
2023/10/11 04:32:13;;;;;;;11.83;5.20;;;17.60;1.00;;;;;;4972966;28;20444;-80
2023/10/11 04:34:47;;;;;;;8.60;4.80;;;17.60;1.00;;;;;;4968276;28;20220;-81
2023/10/11 04:37:17;;;;;;;11.03;4.80;;;17.60;1.00;;;;;;4971729;28;20841;-80
2023/10/11 04:39:51;;;;;;;8.17;5.00;;;17.50;1.00;;;;;;4973438;28;20443;-79
2023/10/11 04:42:19;;;;;;;16.10;5.70;;;17.50;1.00;;;;;;4972956;28;20463;-78
2023/10/11 04:44:54;;;;;;;9.50;4.90;;;17.50;1.00;;;;;;4976481;28;20471;-80
2023/10/11 04:47:21;;;;;;;11.40;4.97;;;17.50;1.00;;;;;;4977236;28;20956;-80
2023/10/11 04:49:48;;;;;;;13.27;5.00;;;17.50;1.00;;;;;;4976502;28;20443;-80
2023/10/11 04:52:22;;;;;;;12.47;5.97;;;17.40;1.00;;;;;;4975762;28;20931;-81
2023/10/11 04:54:54;;;;;;;15.73;4.53;;;17.40;1.00;;;;;;4976238;28;20842;-80
2023/10/11 04:57:24;;;;;;;11.03;4.93;;;17.40;1.00;;;;;;4974569;28;20472;-80
2023/10/11 04:59:59;;;;;;;9.53;5.10;;;17.40;1.00;;;;;;4972625;28;20535;-80
2023/10/11 05:02:32;;;;;;;10.03;4.37;;;17.40;1.00;;;;;;4971145;28;20440;-80
2023/10/11 05:04:59;;;;;;;14.37;5.53;;;17.30;1.00;;;;;;4976424;28;20936;-79
2023/10/11 05:07:25;;;;;;;8.57;4.73;;;17.30;1.00;;;;;;4973815;28;20507;-79
2023/10/11 05:09:56;;;;;;;8.83;4.97;;;17.30;1.00;;;;;;4978180;28;20439;-79
2023/10/11 05:12:22;;;;;;;10.10;4.67;;;17.30;1.00;;;;;;4977131;28;20424;-80
2023/10/11 05:19:56;;;;;;;11.23;4.73;;;17.40;1.00;;;;;;4977879;28;20212;-79
2023/10/11 05:32:58;;;;;;;7.90;4.50;;;17.40;1.00;;;;;;4980252;28;20808;-80
2023/10/11 05:51:32;;;;;;;10.03;5.53;;;17.50;99.90;;;;;;4973653;28;20449;-79
2023/10/11 05:54:05;;;;;;;9.20;4.33;;;17.60;99.90;;;;;;4974126;28;21103;-79
2023/10/11 05:56:45;;;;;;;9.20;4.80;;;17.60;99.90;;;;;;4974767;28;20718;-79
2023/10/11 05:59:13;;;;;;;10.27;4.67;;;17.70;99.90;;;;;;4975764;28;20470;-79
2023/10/11 06:01:39;;;;;;;10.87;4.30;;;17.70;99.90;;;;;;4975234;28;20956;-79
2023/10/11 06:04:05;;;;;;;11.97;4.90;;;17.90;99.90;;;;;;4976264;28;20440;-79
2023/10/11 06:06:42;;;;;;;8.73;3.97;;;18.00;99.90;;;;;;4970375;28;20185;-79
2023/10/11 06:09:17;;;;;;;10.23;4.00;;;18.20;99.90;;;;;;4973851;28;20188;-80
2023/10/11 06:11:53;;;;;;;10.20;4.20;;;18.40;99.90;;;;;;4972124;28;20463;-79
2023/10/11 06:14:19;;;;;;;9.07;4.57;;;18.50;99.90;;;;;;4962038;28;20466;-79
2023/10/11 06:16:55;;;;;;;7.43;3.80;;;18.70;99.90;;;;;;4970316;28;20436;-79
2023/10/11 06:19:25;;;;;;;6.43;4.07;;;18.90;99.90;;;;;;4972861;28;21098;-79
2023/10/11 06:21:58;;;;;;;10.70;4.23;;;19.00;99.90;;;;;;4973912;28;20432;-79
2023/10/11 06:24:25;;;;;;;10.40;4.60;;;19.10;99.90;;;;;;4970174;28;20479;-80
2023/10/11 06:29:22;;;;;;;16.47;5.00;;;19.40;99.90;;;;;;4975010;28;20444;-79
2023/10/11 06:31:49;;;;;;;6.60;3.63;;;19.60;99.90;;;;;;4970613;28;20444;-78
2023/10/11 06:34:18;;;;;;;6.40;4.10;;;19.80;99.90;;;;;;4971443;28;20903;-80
2023/10/11 06:36:51;;;;;;;9.83;4.83;;;19.90;99.90;;;;;;4974063;28;20495;-80
2023/10/11 06:42:31;;;;;;;9.80;4.27;;;21.40;99.90;;;;;;4971791;28;20447;-80
2023/10/11 06:44:57;;;;;;;10.27;4.80;;;21.90;99.90;;;;;;4973363;28;20466;-80
2023/10/11 06:47:24;;;;;;;9.00;5.30;;;22.10;99.90;;;;;;4975672;28;20450;-80
2023/10/11 06:49:54;;;;;;;8.83;4.07;;;22.40;99.90;;;;;;4974361;28;20455;-80
2023/10/11 06:52:26;;;;;;;7.80;5.33;;;23.10;99.90;;;;;;4973014;28;21038;-81
2023/10/11 06:57:39;;;;;;;8.73;4.70;;;25.10;99.90;;;;;;4969043;28;20470;-81
2023/10/11 07:00:12;;;;;;;9.40;4.17;;;26.10;99.90;;;;;;4975420;28;20444;-81
2023/10/11 07:02:39;;;;;;;10.43;4.30;;;26.80;99.90;;;;;;4980555;28;20830;-81
2023/10/11 07:05:14;;;;;;;11.60;4.97;;;27.70;99.90;;;;;;4974975;28;20439;-81
2023/10/11 07:07:39;;;;;;;11.30;4.20;;;28.40;99.90;;;;;;4977550;28;20438;-81
2023/10/11 07:10:27;;;;;;;6.17;4.17;;;28.40;99.90;;;;;;4973505;28;20453;-82
2023/10/11 07:13:03;;;;;;;11.90;4.67;;;28.20;99.90;;;;;;4976311;28;20215;-81
2023/10/11 07:15:42;;;;;;;8.23;4.40;;;28.10;99.90;;;;;;4976686;28;20466;-81
2023/10/11 07:18:21;;;;;;;7.60;4.57;;;28.70;99.90;;;;;;4976253;28;20485;-81
2023/10/11 07:20:49;;;;;;;8.63;4.50;;;29.30;99.90;;;;;;4975804;28;20434;-81
2023/10/11 07:23:21;;;;;;;8.83;5.00;;;30.00;99.90;;;;;;4973605;28;20799;-81
2023/10/11 07:25:59;;;;;;;11.43;4.50;;;30.60;99.90;;;;;;4976246;28;20434;-81
2023/10/11 07:28:35;;;;;;;14.57;4.97;;;31.10;99.90;;;;;;4974781;28;20441;-81
2023/10/11 07:31:04;;;;;;;9.30;4.80;;;31.70;99.90;;;;;;4978832;28;20449;-81
2023/10/11 07:33:31;;;;;;;8.83;4.50;;;32.00;99.90;;;;;;4976504;28;20462;-81
2023/10/11 07:35:59;;;;;;;9.90;4.13;;;32.80;99.90;;;;;;4976974;28;20467;-81
2023/10/11 07:38:32;;;;;;;8.30;4.97;;;33.30;99.90;;;;;;4975853;28;20502;-81
2023/10/11 07:41:04;;;;;;;6.13;3.93;;;33.60;99.90;;;;;;4975082;28;20493;-81
2023/10/11 07:43:32;;;;;;;18.17;4.13;;;34.10;99.90;;;;;;4970509;28;21090;-81
2023/10/11 07:46:00;;;;;;;8.13;4.27;;;34.60;99.90;;;;;;4973134;28;20447;-82
2023/10/11 07:48:30;;;;;;;8.50;4.50;;;34.90;99.90;;;;;;4977300;28;20459;-81
2023/10/11 07:50:58;;;;;;;9.20;4.37;;;35.20;99.90;;;;;;4973645;28;20885;-82
2023/10/11 07:53:25;;;;;;;13.27;4.03;;;35.50;99.90;;;;;;4975553;28;20551;-82
2023/10/11 07:55:51;;;;;;;10.30;4.20;;;35.70;99.90;;;;;;4972343;28;20534;-82
2023/10/11 07:58:26;;;;;;;7.53;4.20;;;35.80;99.90;;;;;;4972517;28;21083;-82
2023/10/11 08:00:51;;;;;;;7.77;4.47;;;35.70;99.90;;;;;;4971490;28;20729;-82
2023/10/11 08:03:17;;;;;;;9.13;4.60;;;36.20;99.90;;;;;;4973234;28;20459;-82
2023/10/11 08:05:47;;;;;;;11.90;4.23;;;36.50;99.90;;;;;;4976375;28;20187;-83
2023/10/11 08:08:13;;;;;;;12.57;4.40;;;36.60;99.90;;;;;;4973799;28;20435;-82
2023/10/11 08:10:44;;;;;;;5.63;3.73;;;36.50;99.90;;;;;;4976216;28;20799;-82
2023/10/11 08:13:26;;;;;;;6.93;4.30;;;36.60;99.90;;;;;;4974504;28;20204;-82
2023/10/11 08:15:57;;;;;;;8.07;4.43;;;35.80;99.90;;;;;;4973539;28;20447;-83
2023/10/11 08:18:24;;;;;;;9.00;4.03;;;35.90;99.90;;;;;;4979142;28;20503;-81
2023/10/11 08:20:50;;;;;;;7.70;4.70;;;35.70;99.90;;;;;;4978219;28;20508;-81
2023/10/11 08:23:28;;;;;;;10.10;4.40;;;35.60;99.90;;;;;;4982945;28;20522;-82
2023/10/11 08:25:57;;;;;;;8.07;3.80;;;35.70;99.90;;;;;;4977827;28;20436;-82
2023/10/11 08:28:34;;;;;;;10.47;4.13;;;35.90;99.90;;;;;;4968256;28;20428;-82
2023/10/11 08:30:59;;;;;;;7.10;4.30;;;36.10;99.90;;;;;;4974252;28;20432;-83
2023/10/11 08:33:25;;;;;;;7.00;3.93;;;36.30;99.90;;;;;;4977899;28;20464;-82
2023/10/11 08:35:54;;;;;;;7.63;4.37;;;36.00;99.90;;;;;;4975820;28;20188;-82
2023/10/11 08:38:24;;;;;;;6.47;3.93;;;36.00;99.90;;;;;;4989795;28;20223;-83
2023/10/11 08:40:51;;;;;;;5.30;4.03;;;36.00;99.90;;;;;;4976862;28;20450;-81
2023/10/11 08:43:17;;;;;;;10.70;4.00;;;36.10;99.90;;;;;;4976004;28;20462;-82
2023/10/11 08:45:59;;;;;;;6.00;4.07;;;36.50;99.90;;;;;;4972997;28;20444;-81
2023/10/11 08:48:25;;;;;;;12.33;4.90;;;36.50;99.90;;;;;;4976378;28;20223;-82
2023/10/11 08:50:55;;;;;;;8.13;4.20;;;36.50;99.90;;;;;;4976551;28;20420;-83
2023/10/11 08:53:21;;;;;;;6.60;4.23;;;36.20;99.90;;;;;;4976220;28;20204;-82
2023/10/11 08:55:54;;;;;;;10.03;4.80;;;36.20;99.90;;;;;;4972452;28;20443;-81
2023/10/11 08:58:23;;;;;;;7.30;4.30;;;36.40;99.90;;;;;;4976720;28;20479;-81
2023/10/11 09:00:51;;;;;;;9.10;4.40;;;36.60;99.90;;;;;;4973882;28;20459;-82
2023/10/11 09:03:26;;;;;;;8.17;4.63;;;36.70;99.90;;;;;;4974639;28;20451;-82
2023/10/11 09:06:00;;;;;;;10.33;4.90;;;37.10;99.90;;;;;;4967562;28;20498;-81
2023/10/11 09:08:31;;;;;;;9.37;4.60;;;37.30;99.90;;;;;;4972634;28;20454;-82
2023/10/11 09:11:11;;;;;;;8.73;4.37;;;37.50;99.90;;;;;;4974152;28;20522;-82
2023/10/11 09:13:36;;;;;;;10.50;5.00;;;37.70;99.90;;;;;;4971699;28;21211;-80
2023/10/11 09:16:08;;;;;;;4.63;3.20;;;37.50;99.90;;;;;;4973169;28;20436;-81
2023/10/11 09:18:34;;;;;;;6.37;4.10;;;37.10;99.90;;;;;;4974623;28;20234;-81
2023/10/11 09:21:09;;;;;;;10.40;4.60;;;37.30;99.90;;;;;;4971260;28;20845;-82
2023/10/11 09:23:39;;;;;;;7.43;4.40;;;37.20;99.90;;;;;;4973973;28;20561;-81
2023/10/11 09:26:06;;;;;;;10.53;4.70;;;37.20;99.90;;;;;;4976933;28;20474;-81
2023/10/11 09:28:40;;;;;;;9.83;4.40;;;37.30;99.90;;;;;;4985895;28;20446;-81
2023/10/11 09:31:16;;;;;;;9.30;4.27;;;37.20;99.90;;;;;;4977394;28;20463;-81
2023/10/11 09:33:50;;;;;;;8.23;4.77;;;37.50;99.90;;;;;;4977690;28;20455;-81
2023/10/11 09:36:19;;;;;;;11.50;4.10;;;37.50;99.90;;;;;;4976170;28;20474;-80
2023/10/11 09:38:45;;;;;;;11.27;5.23;;;37.40;99.90;;;;;;4975052;28;20992;-80
2023/10/11 09:41:13;;;;;;;11.67;4.67;;;37.20;99.90;;;;;;4976418;28;20444;-80
2023/10/11 09:43:46;;;;;;;10.20;4.00;;;37.00;99.90;;;;;;4978572;28;20968;-80
2023/10/11 09:46:13;;;;;;;8.87;4.77;;;37.20;99.90;;;;;;4978259;28;20431;-80
2023/10/11 09:48:42;;;;;;;7.90;4.37;;;37.70;99.90;;;;;;4981434;28;20951;-81
2023/10/11 09:51:13;;;;;;;12.30;4.37;;;37.60;99.90;;;;;;4978710;28;20514;-81
2023/10/11 09:53:42;;;;;;;8.70;4.70;;;38.00;99.90;;;;;;4979810;28;21027;-80
2023/10/11 09:56:40;;;;;;;9.93;4.23;;;37.90;99.90;;;;;;4985634;28;20450;-82
2023/10/11 09:59:22;;;;;;;12.23;4.90;;;37.50;99.90;;;;;;4979118;28;20472;-80
2023/10/11 10:02:02;;;;;;;8.37;4.67;;;37.40;99.90;;;;;;4977275;28;20440;-82
2023/10/11 10:04:50;;;;;;;7.20;3.90;;;37.60;99.90;;;;;;4980152;28;20442;-82
2023/10/11 10:07:26;;;;;;;7.50;3.97;;;37.50;99.90;;;;;;4979971;28;20431;-81
2023/10/11 10:10:06;;;;;;;6.93;4.20;;;37.70;99.90;;;;;;4975766;28;20883;-80
2023/10/11 10:12:32;;;;;;;12.60;5.17;;;37.50;99.90;;;;;;4985047;28;20443;-81
2023/10/11 10:15:20;;;;;;;5.90;3.97;;;37.60;99.90;;;;;;4979533;28;20820;-80
2023/10/11 10:18:00;;;;;;;13.53;5.00;;;37.70;99.90;;;;;;4979952;28;20535;-80
2023/10/11 10:20:33;;;;;;;14.00;4.63;;;37.30;99.90;;;;;;4978935;28;20526;-81
2023/10/11 10:23:22;;;;;;;6.60;4.30;;;36.90;99.90;;;;;;4980347;28;20523;-81
2023/10/11 10:25:50;;;;;;;7.30;4.20;;;37.00;99.90;;;;;;4978834;28;20449;-81
2023/10/11 10:28:39;;;;;;;10.77;4.40;;;37.00;99.90;;;;;;4972625;28;20436;-81
2023/10/11 10:31:09;;;;;;;11.53;5.00;;;37.10;99.90;;;;;;4980321;28;20436;-80
2023/10/11 10:33:38;;;;;;;7.00;4.40;;;37.00;99.90;;;;;;4980193;28;20455;-82
2023/10/11 10:36:24;;;;;;;8.73;4.43;;;37.20;99.90;;;;;;4979670;28;20440;-82
2023/10/11 10:39:03;;;;;;;11.70;4.90;;;36.70;99.90;;;;;;4976107;28;20463;-82
2023/10/11 10:41:31;;;;;;;10.53;4.70;;;36.00;99.90;;;;;;4975388;28;20455;-82
2023/10/11 10:44:04;;;;;;;10.07;4.60;;;35.20;99.90;;;;;;4976909;28;20459;-81
2023/10/11 10:46:32;;;;;;;7.90;4.43;;;34.10;99.90;;;;;;4976511;28;20487;-81
2023/10/11 10:48:58;;;;;;;9.50;4.77;;;33.80;99.90;;;;;;4979500;28;20427;-82
2023/10/11 10:51:27;;;;;;;9.23;4.20;;;33.40;99.90;;;;;;4979148;28;20449;-80
2023/10/11 10:53:53;;;;;;;10.40;4.10;;;33.10;99.90;;;;;;4971388;28;20195;-80
2023/10/11 10:56:26;;;;;;;7.27;3.80;;;32.80;99.90;;;;;;4976811;28;20529;-81
2023/10/11 10:59:12;;;;;;;10.77;4.40;;;32.40;99.90;;;;;;4979574;28;20220;-82
2023/10/11 11:01:44;;;;;;;9.23;4.23;;;32.00;99.90;;;;;;4977304;28;20438;-80
2023/10/11 11:04:11;;;;;;;6.60;4.10;;;31.80;99.90;;;;;;4974320;28;20453;-80
2023/10/11 11:06:46;;;;;;;14.07;4.50;;;31.70;99.90;;;;;;4977495;28;20473;-80
2023/10/11 11:09:14;;;;;;;10.50;4.43;;;31.50;99.90;;;;;;4976777;28;20442;-80
2023/10/11 11:11:43;;;;;;;10.70;4.93;;;31.80;99.90;;;;;;4980863;28;20842;-80
2023/10/11 11:14:10;;;;;;;12.60;4.10;;;32.30;99.90;;;;;;4979172;28;20473;-80
2023/10/11 11:16:40;;;;;;;14.63;4.17;;;32.70;99.90;;;;;;4978121;28;20790;-80
2023/10/11 11:19:16;;;;;;;10.53;4.03;;;33.00;99.90;;;;;;4977449;28;20472;-80
2023/10/11 11:21:46;;;;;;;9.33;4.60;;;33.30;99.90;;;;;;4976806;28;20514;-80
2023/10/11 11:24:34;;;;;;;10.00;3.60;;;33.40;99.90;;;;;;4971347;28;20475;-80
2023/10/11 11:27:01;;;;;;;9.87;4.17;;;33.40;99.90;;;;;;4977223;28;20419;-80
2023/10/11 11:29:33;;;;;;;15.37;4.03;;;33.60;99.90;;;;;;4974502;28;20478;-80
2023/10/11 11:32:14;;;;;;;12.17;4.23;;;34.10;99.90;;;;;;4968719;28;20507;-80
2023/10/11 11:35:02;;;;;;;11.63;4.67;;;34.20;99.90;;;;;;4976879;28;20436;-80
2023/10/11 11:37:29;;;;;;;10.93;4.23;;;34.60;99.90;;;;;;4976719;28;20468;-80
2023/10/11 11:40:17;;;;;;;17.53;4.60;;;35.00;99.90;;;;;;4976909;28;20448;-80
2023/10/11 11:42:47;;;;;;;12.10;4.50;;;35.20;99.90;;;;;;4976533;28;20424;-80
2023/10/11 11:45:16;;;;;;;11.20;3.90;;;35.10;99.90;;;;;;4974075;28;20440;-81
2023/10/11 11:47:58;;;;;;;14.47;4.67;;;35.10;99.90;;;;;;4973827;28;20440;-81
2023/10/11 11:50:25;;;;;;;10.73;4.27;;;35.20;99.90;;;;;;4975410;28;20796;-80
2023/10/11 11:52:50;;;;;;;11.73;4.60;;;35.10;99.90;;;;;;4975574;28;20949;-80
2023/10/11 11:55:20;;;;;;;14.83;4.63;;;35.10;99.90;;;;;;4978898;28;20427;-81
2023/10/11 11:57:47;;;;;;;17.40;5.03;;;35.10;99.90;;;;;;4976710;28;20215;-81
2023/10/11 12:02:49;;;;;;;10.70;4.30;;;35.30;99.90;;;;;;4975039;28;20565;-80
2023/10/11 12:05:14;;;;;;;12.67;4.00;;;35.20;99.90;;;;;;4974780;28;21000;-80
2023/10/11 12:07:40;;;;;;;12.93;4.67;;;35.20;99.90;;;;;;4974488;28;20211;-80
2023/10/11 12:10:23;;;;;;;6.23;4.30;;;35.00;99.90;;;;;;4974264;28;20255;-80
2023/10/11 12:12:50;;;;;;;10.00;4.13;;;35.10;99.90;;;;;;4973684;28;20203;-80
2023/10/11 12:15:17;;;;;;;8.57;4.30;;;35.00;99.90;;;;;;4973260;28;20483;-80
2023/10/11 12:17:42;;;;;;;11.50;4.90;;;35.10;99.90;;;;;;4973025;28;20482;-81
2023/10/11 12:20:12;;;;;;;8.33;3.93;;;35.00;99.90;;;;;;4973401;28;20512;-79
2023/10/11 12:22:42;;;;;;;10.17;4.00;;;35.30;99.90;;;;;;4974920;28;20280;-78
2023/10/11 12:25:12;;;;;;;11.57;3.90;;;35.10;99.90;;;;;;4973384;28;20442;-79
2023/10/11 12:27:41;;;;;;;12.17;5.00;;;35.10;99.90;;;;;;4971902;28;20894;-81
2023/10/11 12:30:10;;;;;;;7.57;3.97;;;35.00;99.90;;;;;;4972501;28;20475;-79
2023/10/11 12:32:39;;;;;;;10.07;4.70;;;34.60;99.90;;;;;;4972798;28;20436;-80
2023/10/11 12:35:08;;;;;;;10.50;4.37;;;34.50;99.90;;;;;;4969784;28;20448;-80
2023/10/11 12:37:33;;;;;;;23.60;4.67;;;34.50;99.90;;;;;;4972211;28;20476;-81
2023/10/11 12:39:59;;;;;;;14.00;4.47;;;34.20;99.90;;;;;;4975645;28;20423;-80
2023/10/11 12:42:24;;;;;;;11.50;4.40;;;34.10;99.90;;;;;;4974362;28;20181;-81
2023/10/11 12:44:51;;;;;;;15.03;5.00;;;34.00;99.90;;;;;;4971934;28;20215;-80
2023/10/11 12:47:19;;;;;;;14.73;4.30;;;33.90;99.90;;;;;;4972376;28;20217;-80
2023/10/11 12:49:45;;;;;;;8.43;3.63;;;33.70;99.90;;;;;;4974590;28;20428;-80
2023/10/11 12:52:17;;;;;;;9.60;4.33;;;33.50;99.90;;;;;;4974501;28;20835;-78
2023/10/11 12:54:43;;;;;;;11.60;4.60;;;33.30;99.90;;;;;;4971982;28;20584;-80
2023/10/11 12:57:08;;;;;;;13.50;4.40;;;33.40;99.90;;;;;;4973969;28;20422;-79
2023/10/11 12:59:35;;;;;;;11.43;4.37;;;33.60;99.90;;;;;;4975437;28;20192;-80
2023/10/11 13:02:04;;;;;;;11.97;4.20;;;33.60;99.90;;;;;;4970991;28;20671;-80
2023/10/11 13:04:37;;;;;;;9.53;4.23;;;33.70;99.90;;;;;;4963266;28;20580;-81
2023/10/11 13:07:10;;;;;;;8.47;3.67;;;33.80;99.90;;;;;;4975011;28;20925;-81
2023/10/11 13:09:36;;;;;;;11.27;3.70;;;34.10;99.90;;;;;;4973313;28;20468;-81
2023/10/11 13:12:04;;;;;;;11.87;4.20;;;34.30;99.90;;;;;;4978282;28;20428;-81
2023/10/11 13:14:29;;;;;;;12.10;4.67;;;34.30;99.90;;;;;;4978277;28;20550;-81
2023/10/11 13:17:00;;;;;;;8.30;4.10;;;34.30;99.90;;;;;;4978434;28;20447;-82
2023/10/11 13:19:27;;;;;;;10.80;4.50;;;34.20;99.90;;;;;;4969171;28;20231;-80
2023/10/11 13:21:56;;;;;;;9.53;4.37;;;34.10;99.90;;;;;;4978518;28;20459;-81
2023/10/11 13:24:23;;;;;;;9.40;4.10;;;33.80;99.90;;;;;;4977904;28;20459;-80
2023/10/11 13:26:54;;;;;;;9.87;3.80;;;33.50;99.90;;;;;;4978089;28;21225;-80
2023/10/11 13:29:20;;;;;;;13.13;4.30;;;33.30;99.90;;;;;;4977661;28;20437;-81
2023/10/11 13:31:48;;;;;;;15.13;3.83;;;32.80;99.90;;;;;;4978134;28;20433;-80
2023/10/11 13:34:17;;;;;;;11.63;4.57;;;32.60;99.90;;;;;;4973478;28;20497;-80
2023/10/11 13:36:43;;;;;;;17.10;5.00;;;32.40;99.90;;;;;;4978185;28;20432;-80
2023/10/11 13:39:26;;;;;;;14.93;5.83;;;31.90;99.90;;;;;;4970072;28;20844;-80
2023/10/11 13:42:09;;;;;;;12.80;4.50;;;31.70;99.90;;;;;;4969737;28;21122;-80
2023/10/11 13:44:37;;;;;;;15.33;4.10;;;31.60;99.90;;;;;;4969938;28;20450;-80
2023/10/11 13:47:04;;;;;;;13.33;4.77;;;31.20;99.90;;;;;;4978273;28;20882;-80